Weather observations for the past three days for
Tappahannock-Essex County Airport
Metric (Imperial)
Date Time (edt) Wind (kph) Vis. (km) Weather Sky Cond. Temperature (ºC) Relative Humidity Wind Chill (°C) Heat Index (°C) Pressure Precipitation (cm)
Air Dwpt 6 hour altimeter (cm) sea level (mb) 1 hr 3 hr 6 hr
Max. Min.
31 11:55 Calm 0.00 Fair CLR 30.1 22.3 63% 34 76.48 0.0
31 11:35 Calm 0.00 Fair CLR 29.2 22.3 66% 32 76.48 0.0
31 11:15 Calm 0.00 Fair CLR 29.4 22.6 67% 33 76.48 0.0
31 10:55 Calm 0.00 Fair CLR 28.6 22.2 68% 32 76.48 0.0
31 10:35 Calm 0.00 Fair CLR 28.6 22.4 69% 32 76.5 0.0
31 10:15 Calm 0.00 Fair CLR 28 22.5 72% 31 76.5 0.0
31 09:55 Calm 0.00 Fair CLR 27.1 22.1 74% 29 76.5 0.0
31 09:35 Calm 0.00 Fair CLR 27 22.1 75% 29 76.5 0.0
31 09:15 Calm 0.00 Fair CLR 26.2 22 78% 28 76.5 0.0
31 08:55 Calm 0.00 Fair CLR 26 22 79% 28 76.48 0.0
31 08:35 Calm 0.00 Fair CLR 25.4 21.9 81% 27 76.48 0.0
31 08:15 Calm 0.00 NULL NULL 24.5 22.2 87% 25 76.48 0.0
31 07:55 N 6 0.00 NULL NULL 23.6 22.6 24 21.7 94% 76.48 0.0
31 07:35 Calm 0.00 NULL NULL 23 22.7 98% 76.45 0.0
31 07:15 Calm 0.00 NULL NULL 22 22 100% 76.45 0.0
31 06:55 Calm 0.00 NULL NULL 21.7 21.7 100% 76.43 0.0
31 06:35 Calm 0.00 NULL NULL 22 22 100% 76.43 0.0
31 06:15 Calm 0.00 Mostly Cloudy BKN110 22.2 22.2 100% 76.43 0.0
31 05:55 Calm 0.00 Overcast OVC110 22.8 22.8 100% 76.4 0.0
31 05:35 Calm 0.00 NULL NULL 23 23 100% 76.43 0.0
31 05:15 Calm 0.00 NULL NULL 23.1 23 99% 76.4 0.0
31 04:55 Calm 0.00 Overcast OVC085 23.3 23 98% 76.43 0.0
31 04:35 Calm 0.00 NULL NULL 23.5 23 97% 76.43 0.0
31 04:15 Calm 0.00 Overcast BKN080 OVC090 23.5 23.1 98% 76.43 0.0
31 03:55 Calm 0.00 Overcast OVC080 23.5 23.2 98% 76.43 0.0
31 03:35 Calm 0.00 Overcast OVC090 23.5 23.2 98% 76.43 0.0
31 03:15 Calm 0.00 Overcast OVC100 23.5 23.1 98% 76.43 0.0
31 02:55 Calm 0.00 Overcast OVC100 23.6 23.3 98% 76.43 0.0
31 02:35 Calm 0.00 Overcast OVC090 24 23.3 96% 23 76.45 0.0
31 02:15 Calm 0.00 Overcast OVC090 23.8 23.8 100% 76.43 0.0
31 01:55 Calm 0.00 Overcast OVC090 23.6 23.6 26.3 23.1 100% 76.45 0.0
31 01:35 Calm 0.00 Mostly Cloudy BKN090 23.5 23.5 100% 76.45 0.0
31 01:15 Calm 0.00 NULL NULL 23.3 23.3 100% 76.45 0.0
31 00:55 Calm 0.00 NULL NULL 23.5 23.5 100% 76.45 0.0
31 00:35 Calm 0.00 NULL NULL 23.2 23.2 100% 76.45 0.0
31 00:15 Calm 0.00 NULL NULL 23.2 23.2 100% 76.48 0.0
30 23:55 Calm 0.00 NULL NULL 23.4 23.4 100% 76.48 0.0
30 23:35 Calm 0.00 NULL NULL 23.5 23.5 100% 76.48 0.0
30 23:15 Calm 0.00 NULL NULL 24 24 100% 23 76.5 0.0
30 22:55 Calm 0.00 NULL NULL 24.2 23.9 98% 23 76.5 0.0
30 22:35 Calm 0.00 NULL NULL 24.5 23.6 95% 24 76.5 0.0
30 22:15 Calm 0.00 NULL NULL 24.6 23.5 94% 25 76.5 0.0
30 21:55 Calm 0.00 NULL NULL 24.7 23.3 92% 25 76.53 0.0
30 21:35 Calm 0.00 NULL NULL 24.9 23.3 91% 25 76.53 0.0
30 21:15 Calm 0.00 NULL NULL 25.1 22.9 88% 26 76.53 0.0
30 20:55 Calm 0.00 Fair CLR 25.9 22.7 83% 28 76.5 0.0
30 20:35 Calm 0.00 Fair CLR 26.2 22.3 79% 28 76.5 0.0
30 20:15 Calm 0.00 Fair CLR 26 21.3 75% 27 76.48 0.0
30 19:55 Calm 0.00 Partly Cloudy SCT110 25.6 21.3 32.6 25.5 77% 27 76.48 0.0
30 19:35 Calm 0.00 Fair CLR 27 20.8 69% 29 76.48 0.0
30 19:15 Calm 0.00 Fair CLR 29.1 20.1 58% 31 76.48 0.0
30 18:55 Calm 0.00 Fair CLR 30.1 20.3 56% 32 76.45 0.0
30 18:35 Calm 0.00 Fair CLR 30.6 20 53% 33 76.45 0.0
30 18:15 Calm 0.00 Fair CLR 31.1 19.8 51% 33 76.45 0.0
30 17:55 Calm 0.00 Fair CLR 31.5 19.8 50% 33 76.45 0.0
30 17:35 Calm 0.00 Fair CLR 31.6 19.6 49% 33 76.45 0.0
30 17:15 Calm 0.00 Fair CLR 31.9 19.5 48% 34 76.43 0.0
30 16:55 N 9 0.00 Fair CLR 32.1 19.7 48% 34 76.45 0.0
30 16:35 Calm 0.00 Partly Cloudy SCT048 31.9 19.9 49% 34 76.45 0.0
30 16:15 Calm 0.00 Partly Cloudy SCT048 SCT075 32.5 20.2 48% 35 76.45 0.0
30 15:55 Calm 0.00 Partly Cloudy SCT048 SCT075 32.3 20.2 49% 35 76.48 0.0
30 15:35 Calm 0.00 Mostly Cloudy BKN046 BKN050 BKN075 31.7 20.1 50% 34 76.5 0.0
30 15:15 Calm 0.00 Mostly Cloudy BKN046 32 20.1 49% 34 76.56 0.0
30 14:55 Calm 0.00 Partly Cloudy SCT044 SCT050 31.1 20.3 53% 33 76.56 0.0
30 14:35 Calm 0.00 Partly Cloudy SCT044 31.8 20.6 51% 34 76.58 0.0
30 14:15 Calm 0.00 Partly Cloudy SCT041 31.4 20.5 52% 34 76.61 0.0
30 13:55 Calm 0.00 Partly Cloudy SCT039 30.9 20.9 31.5 20.5 55% 34 76.63 0.0
30 13:35 Calm 0.00 Mostly Cloudy BKN037 30.7 20.6 55% 33 76.63 0.0
30 13:15 Calm 0.00 Partly Cloudy SCT035 30.8 20.9 56% 33 76.66 0.0
30 12:55 N 7 0.00 Partly Cloudy SCT031 30.3 20.9 57% 33 76.66 0.0
30 12:35 Calm 0.00 Partly Cloudy SCT031 30 20.9 58% 32 76.68 0.0
30 12:15 Calm 0.00 Mostly Cloudy BKN029 28.9 21 62% 31 76.71 0.0
30 11:55 Calm 0.00 Mostly Cloudy BKN029 29.5 21 60% 32 76.71 0.0
30 11:35 Calm 0.00 Mostly Cloudy BKN027 BKN031 27.7 21 67% 30 76.71 0.0
30 11:15 Calm 0.00 Mostly Cloudy BKN023 28.2 21.3 66% 31 76.71 0.0
30 10:55 Calm 0.00 Mostly Cloudy BKN023 27.5 21.4 69% 30 76.71 0.0
30 10:35 Calm 0.00 Mostly Cloudy SCT019 BKN023 27.2 21.6 72% 29 76.73 0.0
30 10:15 Calm 0.00 Mostly Cloudy BKN015 BKN021 26.6 21.9 75% 29 76.73 0.0
30 09:55 Calm 0.00 Partly Cloudy SCT011 SCT021 25.9 22.4 81% 28 76.76 0.0
30 09:35 Calm 0.00 Fair CLR 25.3 22.6 85% 26 76.78 0.0
30 09:15 Calm 0.00 NULL NULL 24.1 22.9 93% 24 76.78 0.0
30 08:55 Calm 0.00 NULL NULL 23.1 22.9 99% 76.81 0.0
30 08:35 Calm 0.00 NULL NULL 22.2 22.2 100% 76.81 0.0
30 08:15 Calm 0.00 NULL NULL 21.7 21.7 100% 76.81 0.0
30 07:55 Calm 0.00 NULL NULL 20.3 20.3 20.3 16.4 100% 76.81 0.0
30 07:35 Calm 0.00 NULL NULL 19.2 19.2 100% 76.78 0.0
30 07:15 Calm 0.00 NULL NULL 18.3 18.3 100% 76.78 0.0
30 06:55 Calm 0.00 NULL NULL 19.1 19.1 100% 76.76 0.0
30 06:35 Calm 0.00 NULL NULL 16.8 16.8 100% 76.73 0.0
30 06:15 Calm 0.00 Mostly Cloudy BKN003 17.2 17.2 100% 76.73 0.0
30 05:55 Calm 0.00 Overcast OVC003 18 18 100% 76.73 0.0
30 05:35 Calm 0.00 Overcast OVC003 17 17 100% 76.73 0.0
30 05:15 Calm 0.00 Overcast OVC003 16.9 16.9 100% 76.73 0.0
30 04:55 Calm 0.00 Overcast OVC003 17.6 17.6 100% 76.73 0.0
30 04:35 Calm 0.00 Mostly Cloudy BKN003 17.3 17.3 100% 76.73 0.0
30 04:15 Calm 0.00 NULL NULL 17.8 17.8 100% 76.76 0.0
30 03:55 Calm 0.00 NULL NULL 18.4 18.4 100% 76.76 0.0
30 03:35 Calm 0.00 NULL NULL 18.3 18.3 100% 76.76 0.0
30 03:15 Calm 0.00 NULL NULL 18.5 18.5 100% 76.76 0.0
30 02:55 Calm 0.00 Mostly Cloudy BKN003 BKN011 18 18 100% 76.76 0.0
30 02:35 Calm 0.00 NULL NULL 18.6 18.6 100% 76.78 0.0
30 02:15 Calm 0.00 NULL NULL 18.7 18.7 100% 76.78 0.0
30 01:55 Calm 0.00 NULL NULL 19.7 19.7 24.5 18.5 100% 76.78 0.0
30 01:35 Calm 0.00 NULL NULL 19.3 19.3 100% 76.81 0.0
30 01:15 Calm 0.00 NULL NULL 19.5 19.5 100% 76.81 0.0
30 00:55 Calm 0.00 NULL NULL 19.4 19.4 100% 76.81 0.0
30 00:35 Calm 0.00 NULL NULL 19 19 100% 76.81 0.0
30 00:15 Calm 0.00 NULL NULL 19.5 19.5 100% 76.78 0.0
29 23:55 Calm 0.00 NULL NULL 19.5 19.5 100% 76.78 0.0
29 23:35 Calm 0.00 NULL NULL 20 20 100% 76.76 0.0
29 23:15 Calm 0.00 NULL NULL 20 20 100% 76.76 0.0
29 22:55 Calm 0.00 NULL NULL 20.2 20.2 100% 76.73 0.0
29 22:35 Calm 0.00 NULL NULL 20.5 20.5 100% 76.73 0.0
29 22:15 Calm 0.00 NULL NULL 20.8 20.8 100% 76.73 0.0
29 21:55 Calm 0.00 NULL NULL 21.1 21.1 100% 76.73 0.0
29 21:35 Calm 0.00 NULL NULL 21.8 21.5 98% 76.73 0.0
29 21:15 Calm 0.00 NULL NULL 22.2 21.1 94% 76.73 0.0
29 20:55 Calm 0.00 NULL NULL 23 20.6 86% 76.71 0.0
29 20:35 Calm 0.00 Partly Cloudy SCT026 SCT036 23.7 20.4 82% 76.71 0.0
29 20:15 Calm 0.00 Mostly Cloudy BKN026 BKN036 24.1 20.4 80% 25 76.68 0.0
29 19:55 Calm 0.00 Mostly Cloudy BKN029 24.1 20.8 29 24 82% 24 76.68 0.0
29 19:35 Calm 0.00 Partly Cloudy SCT031 24.9 20.8 78% 26 76.68 0.0
29 19:15 Calm 0.00 Fair CLR 26.3 20.5 71% 28 76.68 0.0
29 18:55 Calm 0.00 Fair CLR 27 20 66% 29 76.68 0.0
29 18:35 Calm 0.00 Fair CLR 27.7 19.9 63% 29 76.66 0.0
29 18:15 Calm 0.00 Fair CLR 28 19.6 60% 29 76.66 0.0
29 17:55 Calm 0.00 Fair CLR 28 19.5 60% 29 76.68 0.0
29 17:35 Calm 0.00 Fair CLR 27.9 19.4 60% 29 76.71 0.0
29 17:15 Calm 0.00 Fair CLR 28 19.6 60% 29 76.71 0.0
29 16:55 Calm 0.00 Fair CLR 27.8 19.5 61% 29 76.71 0.0
29 16:35 Calm 0.00 Fair CLR 28.6 19.1 56% 30 76.71 0.0
29 16:15 Calm 0.00 Fair CLR 28.3 18.9 57% 30 76.73 0.0
29 15:55 Calm 0.00 Fair CLR 28.2 18.8 57% 29 76.76 0.0
29 15:35 Calm 0.00 Fair CLR 28.2 18.9 57% 29 76.78 0.0
29 15:15 Calm 0.00 Partly Cloudy SCT095 28 18.9 58% 29 76.78 0.0
29 14:55 Calm 0.00 Mostly Cloudy BKN095 27.7 18.7 58% 29 76.81 0.0
29 14:35 N 9 0.00 Mostly Cloudy BKN095 27.5 18.5 58% 29 76.81 0.0
29 14:15 Calm 0.00 Mostly Cloudy BKN095 27.9 18.6 57% 29 76.84 0.0
29 13:55 Calm 0.00 Overcast OVC085 27.1 18.4 27.7 21.5 59% 28 76.84 0.0
29 13:35 Calm 0.00 Mostly Cloudy BKN085 27.1 18.3 59% 28 76.84 0.0
29 12:15 Calm 0.00 Overcast OVC085 25.8 18.6 65% 27 76.84 0.0
29 11:55 Calm 0.00 Mostly Cloudy BKN085 26 18.3 63% 27 76.84 0.0
29 11:35 Calm 0.00 Fair CLR 25.8 18.7 65% 27 76.84 0.0
29 11:15 Calm 0.00 Fair CLR 25.6 18.6 65% 27 76.81 0.0
29 10:55 Calm 0.00 Fair CLR 25.1 18.6 67% 26 76.78 0.0
29 10:35 Calm 0.00 Fair CLR 25.2 18.9 68% 26 76.78 0.0
29 10:15 Calm 0.00 Fair CLR 24.8 18.9 70% 26 76.78 0.0
29 09:55 Calm 0.00 Fair CLR 23.7 19.1 76% 76.76 0.0
29 09:35 Calm 0.00 NULL NULL 22.8 20.6 87% 76.73 0.0
29 09:15 Calm 0.00 NULL NULL 22.3 21.8 97% 76.73 0.0
29 08:55 Calm 0.00 Mostly Cloudy BKN013 22.3 22.3 100% 76.73 0.0
29 08:35 Calm 0.00 Mostly Cloudy BKN011 22 22 100% 76.73 0.0
29 08:15 Calm 0.00 NULL NULL 21.7 21.7 100% 76.71 0.0
29 07:55 Calm 0.00 NULL NULL 21.5 21.5 21.5 20 100% 76.68 0.0
29 07:35 Calm 0.00 NULL NULL 21.1 21.1 100% 76.66 0.0
29 07:15 Calm 0.00 NULL NULL 21 21 100% 76.66 0.0
29 06:55 Calm 0.00 NULL NULL 20.7 20.7 100% 76.66 0.0
29 06:35 Calm 0.00 NULL NULL 21.1 21.1 100% 76.63 0.0
29 06:15 Calm 0.00 NULL NULL 21.1 21.1 100% 76.61 0.0
29 05:55 Calm 0.00 Mostly Cloudy BKN001 21.1 21.1 100% 76.58 0.0
29 05:35 Calm 0.00 Mostly Cloudy BKN001 20.5 20.5 100% 76.58 0.0
29 05:15 Calm 0.00 Mostly Cloudy BKN001 20.5 20.5 100% 76.58 0.0
29 04:55 Calm 0.00 NULL NULL 20.4 20.4 100% 76.58 0.0
29 04:35 Calm 0.00 NULL NULL 20.5 20.5 100% 76.56 0.0
29 04:15 Calm 0.00 NULL NULL 20.2 20.2 100% 76.53 0.0
29 03:55 Calm 0.00 NULL NULL 20.6 20.6 100% 76.53 0.0
29 03:35 Calm 0.00 NULL NULL 20.6 20.6 100% 76.5 0.0
29 03:15 Calm 0.00 NULL NULL 20.5 20.5 100% 76.5 0.0
29 02:55 Calm 0.00 NULL NULL 20.7 20.7 100% 76.5 0.0
29 02:35 Calm 0.00 NULL NULL 20.5 20.5 100% 76.5 0.0
29 02:15 Calm 0.00 NULL NULL 20.8 20.8 100% 76.5 0.0
29 01:55 Calm 0.00 NULL NULL 21.2 21.2 25.9 21.2 100% 76.48 0.0
29 01:35 Calm 0.00 NULL NULL 21.9 21.9 100% 76.48 0.0
29 01:15 Calm 0.00 NULL NULL 21.6 21.6 100% 76.45 0.0
29 00:55 Calm 0.00 NULL NULL 21.5 21.5 100% 76.45 0.0
29 00:35 Calm 0.00 NULL NULL 21.4 21.4 100% 76.45 0.0
29 00:15 Calm 0.00 NULL NULL 21.3 21.3 100% 76.43 0.0
28 23:55 Calm 0.00 NULL NULL 21.6 21.6 100% 76.43 0.0
28 23:35 Calm 0.00 NULL NULL 21.9 21.9 100% 76.43 0.0
28 23:15 Calm 0.00 NULL NULL 22.2 22.2 100% 76.4 0.0
28 22:55 Calm 0.00 NULL NULL 22.3 22.3 100% 76.4 0.0
28 22:35 Calm 0.00 NULL NULL 22.4 22.4 100% 76.43 0.0
28 22:15 Calm 0.00 NULL NULL 22.8 22.8 100% 76.4 0.0
28 21:55 Calm 0.00 NULL NULL 23.3 23.3 100% 76.4 0.0
28 21:35 Calm 0.00 NULL NULL 24 23.3 96% 23 76.38 0.0
28 21:15 Calm 0.00 NULL NULL 24.5 22.8 90% 25 76.38 0.0
28 20:55 Calm 0.00 NULL NULL 24.8 22.5 87% 25 76.38 0.0
28 20:35 Calm 0.00 Mostly Cloudy SCT048 BKN100 25.4 22.1 82% 27 76.35 0.0
28 20:15 Calm 0.00 Partly Cloudy SCT100 25.8 22 80% 27 76.33 0.0
28 19:55 Calm 0.00 Partly Cloudy SCT120 25.8 22.2 32.2 25.8 81% 27 76.3 0.0
28 19:35 Calm 0.00 Partly Cloudy SCT120 26.3 22.2 78% 28 76.28 0.0
28 19:15 Calm 0.00 Fair CLR 26.8 22.2 76% 29 76.25 0.0
28 18:55 Calm 0.00 Fair CLR 27 23.1 79% 30 76.25 0.0
28 18:35 Calm 0.00 Fair CLR 27.5 23.3 78% 31 76.23 0.0
28 18:15 Calm 0.00 Partly Cloudy SCT027 SCT045 SCT055 28 22.8 73% 31 76.23 0.0
28 17:55 Calm 0.00 Overcast BKN043 BKN050 OVC090 28.1 22.1 70% 31 76.23 0.0
28 17:35 Calm 0.00 Mostly Cloudy BKN041 BKN049 28.6 22 68% 31 76.23 0.0
28 17:15 Calm 0.00 Partly Cloudy SCT041 SCT047 SCT070 29.6 22.2 64% 33 76.2 0.0
28 16:55 Calm 0.00 Mostly Cloudy SCT041 BKN049 BKN065 29.9 22.5 65% 34 76.2 0.0
28 16:35 Calm 0.00 Partly Cloudy SCT043 SCT049 31.1 21.9 58% 35 76.2 0.0
28 16:15 Calm 0.00 Fair CLR 31.4 21.6 56% 35 76.2 0.0
28 15:55 Calm 0.00 Partly Cloudy SCT041 SCT120 30.2 22 62% 34 76.17 0.0
28 15:35 Calm 0.00 Partly Cloudy BKN043 SCT050 31.2 21.8 57% 35 76.2 0.0
28 15:15 N 11 0.00 Partly Cloudy SCT041 SCT048 SCT055 31.8 21.6 55% 35 76.2 0.0
28 14:55 SW 9 0.00 Mostly Cloudy BKN041 32.1 21.7 54% 36 76.2 0.0
28 14:35 NW 11 0.00 Partly Cloudy SCT041 31.9 21.3 53% 35 76.2 0.0
28 14:15 Calm 0.00 Fair CLR 31.6 20.2 51% 34 76.2 0.0
28 13:55 Calm 0.00 Fair CLR 30.9 19.9 31.7 22.3 52% 33 76.23 0.0
28 13:35 Calm 0.00 Fair CLR 30.9 19.9 52% 33 76.25 0.0
28 13:15 Calm 0.00 Fair CLR 30.4 19.6 52% 32 76.25 0.0
28 12:55 Calm 0.00 Fair CLR 30.2 19.6 53% 32 76.25 0.0
28 12:35 Calm 0.00 Fair CLR 29.5 19.7 56% 31 76.28 0.0
28 12:15 Calm 0.00 Partly Cloudy SCT110 28.9 20.3 60% 31 76.28 0.0
Date Time (edt) Wind (kph) Vis. (km) Weather Sky Cond. Air Dwpt Max. Min. Relative Humidity Wind Chill (°C) Heat Index (°C) altimeter (cm) sea level (mb) 1 hr 3 hr 6 hr
6 hour
Temperature (ºC) Pressure Precipitation (cm)